sensor_id;sensor_type;location;lat;lon;timestamp;temperature;humidity
3564;DHT22;1796;52.388;13.096;2023-08-08T00:00:44;13.30;99.90
3564;DHT22;1796;52.388;13.096;2023-08-08T00:03:11;13.30;99.90
3564;DHT22;1796;52.388;13.096;2023-08-08T00:05:38;13.30;99.90
3564;DHT22;1796;52.388;13.096;2023-08-08T00:08:05;13.30;99.90
3564;DHT22;1796;52.388;13.096;2023-08-08T00:10:33;13.20;99.90
3564;DHT22;1796;52.388;13.096;2023-08-08T00:12:59;13.20;99.90
3564;DHT22;1796;52.388;13.096;2023-08-08T00:15:28;13.10;99.90
3564;DHT22;1796;52.388;13.096;2023-08-08T00:17:54;13.10;99.90
3564;DHT22;1796;52.388;13.096;2023-08-08T00:20:21;13.10;99.90
3564;DHT22;1796;52.388;13.096;2023-08-08T00:22:48;13.00;99.90
3564;DHT22;1796;52.388;13.096;2023-08-08T00:25:15;13.00;99.90
3564;DHT22;1796;52.388;13.096;2023-08-08T00:27:42;12.90;99.90
3564;DHT22;1796;52.388;13.096;2023-08-08T00:30:10;12.90;99.90
3564;DHT22;1796;52.388;13.096;2023-08-08T00:32:39;12.90;99.90
3564;DHT22;1796;52.388;13.096;2023-08-08T00:35:06;12.80;99.90
3564;DHT22;1796;52.388;13.096;2023-08-08T00:37:33;12.80;99.90
3564;DHT22;1796;52.388;13.096;2023-08-08T00:40:00;12.80;99.90
3564;DHT22;1796;52.388;13.096;2023-08-08T00:42:27;12.70;99.90
3564;DHT22;1796;52.388;13.096;2023-08-08T00:44:54;12.80;99.90
3564;DHT22;1796;52.388;13.096;2023-08-08T00:47:27;12.70;99.90
3564;DHT22;1796;52.388;13.096;2023-08-08T00:49:56;12.80;99.90
3564;DHT22;1796;52.388;13.096;2023-08-08T00:52:23;12.80;99.90
3564;DHT22;1796;52.388;13.096;2023-08-08T00:54:51;12.70;99.90
3564;DHT22;1796;52.388;13.096;2023-08-08T00:57:18;12.70;99.90
3564;DHT22;1796;52.388;13.096;2023-08-08T00:59:45;12.80;99.90
3564;DHT22;1796;52.388;13.096;2023-08-08T01:02:12;12.70;99.90
3564;DHT22;1796;52.388;13.096;2023-08-08T01:04:39;12.70;99.90
3564;DHT22;1796;52.388;13.096;2023-08-08T01:07:12;12.70;99.90
3564;DHT22;1796;52.388;13.096;2023-08-08T01:09:48;12.70;99.90
3564;DHT22;1796;52.388;13.096;2023-08-08T01:12:16;12.70;99.90
3564;DHT22;1796;52.388;13.096;2023-08-08T01:14:44;12.70;99.90
3564;DHT22;1796;52.388;13.096;2023-08-08T01:17:12;12.60;99.90
3564;DHT22;1796;52.388;13.096;2023-08-08T01:19:39;12.60;99.90
3564;DHT22;1796;52.388;13.096;2023-08-08T01:22:15;12.60;99.90
3564;DHT22;1796;52.388;13.096;2023-08-08T01:24:46;12.60;99.90
3564;DHT22;1796;52.388;13.096;2023-08-08T01:27:13;12.60;99.90
3564;DHT22;1796;52.388;13.096;2023-08-08T01:29:41;12.50;99.90
3564;DHT22;1796;52.388;13.096;2023-08-08T01:32:08;12.50;99.90
3564;DHT22;1796;52.388;13.096;2023-08-08T01:34:36;12.50;99.90
3564;DHT22;1796;52.388;13.096;2023-08-08T01:37:09;12.50;99.90
3564;DHT22;1796;52.388;13.096;2023-08-08T01:39:38;12.50;99.90
3564;DHT22;1796;52.388;13.096;2023-08-08T01:42:07;12.50;99.90
3564;DHT22;1796;52.388;13.096;2023-08-08T01:44:34;12.50;99.90
3564;DHT22;1796;52.388;13.096;2023-08-08T01:47:02;12.50;99.90
3564;DHT22;1796;52.388;13.096;2023-08-08T01:49:29;12.50;99.90
3564;DHT22;1796;52.388;13.096;2023-08-08T01:51:55;12.50;99.90
3564;DHT22;1796;52.388;13.096;2023-08-08T01:54:22;12.40;99.90
3564;DHT22;1796;52.388;13.096;2023-08-08T01:56:49;12.40;99.90
3564;DHT22;1796;52.388;13.096;2023-08-08T01:59:17;12.30;99.90
3564;DHT22;1796;52.388;13.096;2023-08-08T02:01:44;12.40;99.90
3564;DHT22;1796;52.388;13.096;2023-08-08T02:04:11;12.30;99.90
3564;DHT22;1796;52.388;13.096;2023-08-08T02:06:38;12.30;99.90
3564;DHT22;1796;52.388;13.096;2023-08-08T02:09:05;12.40;99.90
3564;DHT22;1796;52.388;13.096;2023-08-08T02:11:32;12.40;99.90
3564;DHT22;1796;52.388;13.096;2023-08-08T02:13:58;12.40;99.90
3564;DHT22;1796;52.388;13.096;2023-08-08T02:16:26;12.40;99.90
3564;DHT22;1796;52.388;13.096;2023-08-08T02:18:53;12.30;99.90
3564;DHT22;1796;52.388;13.096;2023-08-08T02:21:20;12.40;99.90
3564;DHT22;1796;52.388;13.096;2023-08-08T02:23:47;12.40;99.90
3564;DHT22;1796;52.388;13.096;2023-08-08T02:26:14;12.40;99.90
3564;DHT22;1796;52.388;13.096;2023-08-08T02:28:41;12.40;99.90
3564;DHT22;1796;52.388;13.096;2023-08-08T02:31:08;12.40;99.90
3564;DHT22;1796;52.388;13.096;2023-08-08T02:33:37;12.40;99.90
3564;DHT22;1796;52.388;13.096;2023-08-08T02:36:04;12.40;99.90
3564;DHT22;1796;52.388;13.096;2023-08-08T02:38:31;12.30;99.90
3564;DHT22;1796;52.388;13.096;2023-08-08T02:40:58;12.40;99.90
3564;DHT22;1796;52.388;13.096;2023-08-08T02:43:24;12.40;99.90
3564;DHT22;1796;52.388;13.096;2023-08-08T02:45:51;12.40;99.90
3564;DHT22;1796;52.388;13.096;2023-08-08T02:48:18;12.40;99.90
3564;DHT22;1796;52.388;13.096;2023-08-08T02:50:46;12.30;99.90
3564;DHT22;1796;52.388;13.096;2023-08-08T02:53:13;12.30;99.90
3564;DHT22;1796;52.388;13.096;2023-08-08T02:55:40;12.40;99.90
3564;DHT22;1796;52.388;13.096;2023-08-08T02:58:07;12.30;99.90
3564;DHT22;1796;52.388;13.096;2023-08-08T03:00:34;12.30;99.90
3564;DHT22;1796;52.388;13.096;2023-08-08T03:03:01;12.20;99.90
3564;DHT22;1796;52.388;13.096;2023-08-08T03:05:28;12.30;99.90
3564;DHT22;1796;52.388;13.096;2023-08-08T03:07:56;12.20;99.90
3564;DHT22;1796;52.388;13.096;2023-08-08T03:10:23;12.30;99.90
3564;DHT22;1796;52.388;13.096;2023-08-08T03:12:50;12.20;99.90
3564;DHT22;1796;52.388;13.096;2023-08-08T03:15:17;12.20;99.90
3564;DHT22;1796;52.388;13.096;2023-08-08T03:17:44;12.20;99.90
3564;DHT22;1796;52.388;13.096;2023-08-08T03:20:11;12.20;99.90
3564;DHT22;1796;52.388;13.096;2023-08-08T03:22:38;12.10;99.90
3564;DHT22;1796;52.388;13.096;2023-08-08T03:25:07;12.10;99.90
3564;DHT22;1796;52.388;13.096;2023-08-08T03:27:34;12.10;99.90
3564;DHT22;1796;52.388;13.096;2023-08-08T03:30:01;12.10;99.90
3564;DHT22;1796;52.388;13.096;2023-08-08T03:32:28;12.10;99.90
3564;DHT22;1796;52.388;13.096;2023-08-08T03:34:55;12.10;99.90
3564;DHT22;1796;52.388;13.096;2023-08-08T03:37:22;12.20;99.90
3564;DHT22;1796;52.388;13.096;2023-08-08T03:39:48;12.20;99.90
3564;DHT22;1796;52.388;13.096;2023-08-08T03:42:17;12.20;99.90
3564;DHT22;1796;52.388;13.096;2023-08-08T03:44:44;12.20;99.90
3564;DHT22;1796;52.388;13.096;2023-08-08T03:47:11;12.20;99.90
3564;DHT22;1796;52.388;13.096;2023-08-08T03:49:38;12.20;99.90
3564;DHT22;1796;52.388;13.096;2023-08-08T03:52:05;12.30;99.90
3564;DHT22;1796;52.388;13.096;2023-08-08T03:54:32;12.40;99.90
3564;DHT22;1796;52.388;13.096;2023-08-08T03:56:59;12.50;99.90
3564;DHT22;1796;52.388;13.096;2023-08-08T03:59:28;12.50;99.90
3564;DHT22;1796;52.388;13.096;2023-08-08T04:01:55;12.70;99.90
3564;DHT22;1796;52.388;13.096;2023-08-08T04:04:22;12.70;99.90
3564;DHT22;1796;52.388;13.096;2023-08-08T04:06:48;12.80;99.90
3564;DHT22;1796;52.388;13.096;2023-08-08T04:09:15;12.80;99.90
3564;DHT22;1796;52.388;13.096;2023-08-08T04:11:42;12.90;99.90
3564;DHT22;1796;52.388;13.096;2023-08-08T04:14:09;12.90;99.90
3564;DHT22;1796;52.388;13.096;2023-08-08T04:16:38;12.90;99.90
3564;DHT22;1796;52.388;13.096;2023-08-08T04:19:04;12.90;99.90
3564;DHT22;1796;52.388;13.096;2023-08-08T04:21:31;12.90;99.90
3564;DHT22;1796;52.388;13.096;2023-08-08T04:23:59;12.90;99.90
3564;DHT22;1796;52.388;13.096;2023-08-08T04:26:26;12.80;99.90
3564;DHT22;1796;52.388;13.096;2023-08-08T04:28:52;12.90;99.90
3564;DHT22;1796;52.388;13.096;2023-08-08T04:31:21;12.90;99.90
3564;DHT22;1796;52.388;13.096;2023-08-08T04:33:51;13.00;99.90
3564;DHT22;1796;52.388;13.096;2023-08-08T04:36:21;13.00;99.90
3564;DHT22;1796;52.388;13.096;2023-08-08T04:38:48;13.10;99.90
3564;DHT22;1796;52.388;13.096;2023-08-08T04:41:15;13.50;99.90
3564;DHT22;1796;52.388;13.096;2023-08-08T04:43:41;13.90;99.90
3564;DHT22;1796;52.388;13.096;2023-08-08T04:46:08;14.20;99.90
3564;DHT22;1796;52.388;13.096;2023-08-08T04:48:36;14.20;99.90
3564;DHT22;1796;52.388;13.096;2023-08-08T04:51:06;14.40;99.90
3564;DHT22;1796;52.388;13.096;2023-08-08T04:53:33;14.70;99.90
3564;DHT22;1796;52.388;13.096;2023-08-08T04:56:00;14.70;99.90
3564;DHT22;1796;52.388;13.096;2023-08-08T04:58:27;15.10;99.90
3564;DHT22;1796;52.388;13.096;2023-08-08T05:00:54;15.70;99.90
3564;DHT22;1796;52.388;13.096;2023-08-08T05:03:21;15.90;99.90
3564;DHT22;1796;52.388;13.096;2023-08-08T05:05:48;16.20;99.90
3564;DHT22;1796;52.388;13.096;2023-08-08T05:08:16;16.60;99.90
3564;DHT22;1796;52.388;13.096;2023-08-08T05:10:43;16.70;99.90
3564;DHT22;1796;52.388;13.096;2023-08-08T05:13:10;16.50;99.90
3564;DHT22;1796;52.388;13.096;2023-08-08T05:15:37;15.90;99.90
3564;DHT22;1796;52.388;13.096;2023-08-08T05:18:04;15.50;99.90
3564;DHT22;1796;52.388;13.096;2023-08-08T05:20:31;15.20;99.90
3564;DHT22;1796;52.388;13.096;2023-08-08T05:22:58;15.20;99.90
3564;DHT22;1796;52.388;13.096;2023-08-08T05:25:26;15.30;99.90
3564;DHT22;1796;52.388;13.096;2023-08-08T05:27:53;15.50;99.90
3564;DHT22;1796;52.388;13.096;2023-08-08T05:30:20;16.10;99.90
3564;DHT22;1796;52.388;13.096;2023-08-08T05:32:47;15.90;99.90
3564;DHT22;1796;52.388;13.096;2023-08-08T05:35:14;15.90;99.90
3564;DHT22;1796;52.388;13.096;2023-08-08T05:37:41;15.80;99.90
3564;DHT22;1796;52.388;13.096;2023-08-08T05:40:09;15.80;99.90
3564;DHT22;1796;52.388;13.096;2023-08-08T05:42:38;15.90;99.90
3564;DHT22;1796;52.388;13.096;2023-08-08T05:45:06;15.90;99.90
3564;DHT22;1796;52.388;13.096;2023-08-08T05:47:33;15.90;99.90
3564;DHT22;1796;52.388;13.096;2023-08-08T05:50:00;15.90;99.90
3564;DHT22;1796;52.388;13.096;2023-08-08T05:52:27;16.00;99.90
3564;DHT22;1796;52.388;13.096;2023-08-08T05:54:54;16.10;99.90
3564;DHT22;1796;52.388;13.096;2023-08-08T05:57:21;16.10;99.90
3564;DHT22;1796;52.388;13.096;2023-08-08T05:59:49;16.20;99.90
3564;DHT22;1796;52.388;13.096;2023-08-08T06:02:16;16.20;99.90
3564;DHT22;1796;52.388;13.096;2023-08-08T06:04:43;16.00;99.90
3564;DHT22;1796;52.388;13.096;2023-08-08T06:07:11;16.00;99.90
3564;DHT22;1796;52.388;13.096;2023-08-08T06:09:37;15.90;99.90
3564;DHT22;1796;52.388;13.096;2023-08-08T06:12:05;16.00;99.90
3564;DHT22;1796;52.388;13.096;2023-08-08T06:14:32;16.10;99.90
3564;DHT22;1796;52.388;13.096;2023-08-08T06:17:01;16.10;99.90
3564;DHT22;1796;52.388;13.096;2023-08-08T06:19:27;16.00;99.90
3564;DHT22;1796;52.388;13.096;2023-08-08T06:21:54;16.00;99.90
3564;DHT22;1796;52.388;13.096;2023-08-08T06:24:21;16.00;99.90
3564;DHT22;1796;52.388;13.096;2023-08-08T06:26:48;16.00;99.90
3564;DHT22;1796;52.388;13.096;2023-08-08T06:29:15;15.90;99.90
3564;DHT22;1796;52.388;13.096;2023-08-08T06:31:42;16.00;99.90
3564;DHT22;1796;52.388;13.096;2023-08-08T06:34:10;16.00;99.90
3564;DHT22;1796;52.388;13.096;2023-08-08T06:36:37;16.20;99.90
3564;DHT22;1796;52.388;13.096;2023-08-08T06:39:04;16.10;99.90
3564;DHT22;1796;52.388;13.096;2023-08-08T06:41:31;15.90;99.90
3564;DHT22;1796;52.388;13.096;2023-08-08T06:43:58;16.00;99.90
3564;DHT22;1796;52.388;13.096;2023-08-08T06:46:25;16.10;99.90
3564;DHT22;1796;52.388;13.096;2023-08-08T06:48:51;16.10;99.90
3564;DHT22;1796;52.388;13.096;2023-08-08T06:51:23;16.00;99.90
3564;DHT22;1796;52.388;13.096;2023-08-08T06:53:50;15.90;99.90
3564;DHT22;1796;52.388;13.096;2023-08-08T06:56:17;16.10;99.90
3564;DHT22;1796;52.388;13.096;2023-08-08T06:58:44;16.50;99.90
3564;DHT22;1796;52.388;13.096;2023-08-08T07:01:11;17.50;99.90
3564;DHT22;1796;52.388;13.096;2023-08-08T07:03:38;18.60;99.90
3564;DHT22;1796;52.388;13.096;2023-08-08T07:06:05;18.70;99.90
3564;DHT22;1796;52.388;13.096;2023-08-08T07:08:34;18.40;99.90
3564;DHT22;1796;52.388;13.096;2023-08-08T07:11:00;18.40;99.90
3564;DHT22;1796;52.388;13.096;2023-08-08T07:13:27;18.40;99.90
3564;DHT22;1796;52.388;13.096;2023-08-08T07:15:54;18.10;99.90
3564;DHT22;1796;52.388;13.096;2023-08-08T07:18:21;18.10;99.90
3564;DHT22;1796;52.388;13.096;2023-08-08T07:20:48;18.00;99.90
3564;DHT22;1796;52.388;13.096;2023-08-08T07:23:15;18.00;99.90
3564;DHT22;1796;52.388;13.096;2023-08-08T07:25:43;17.70;99.90
3564;DHT22;1796;52.388;13.096;2023-08-08T07:28:12;17.80;99.90
3564;DHT22;1796;52.388;13.096;2023-08-08T07:30:40;17.90;99.90
3564;DHT22;1796;52.388;13.096;2023-08-08T07:33:07;18.30;99.90
3564;DHT22;1796;52.388;13.096;2023-08-08T07:35:34;18.50;99.90
3564;DHT22;1796;52.388;13.096;2023-08-08T07:38:01;18.20;99.90
3564;DHT22;1796;52.388;13.096;2023-08-08T07:40:28;18.00;99.90
3564;DHT22;1796;52.388;13.096;2023-08-08T07:42:56;17.80;99.90
3564;DHT22;1796;52.388;13.096;2023-08-08T07:45:23;17.50;99.90
3564;DHT22;1796;52.388;13.096;2023-08-08T07:47:50;17.70;99.90
3564;DHT22;1796;52.388;13.096;2023-08-08T07:50:16;18.10;99.90
3564;DHT22;1796;52.388;13.096;2023-08-08T07:52:44;18.20;99.90
3564;DHT22;1796;52.388;13.096;2023-08-08T07:55:10;18.40;99.90
3564;DHT22;1796;52.388;13.096;2023-08-08T07:57:38;18.50;99.90
3564;DHT22;1796;52.388;13.096;2023-08-08T08:00:07;18.50;99.90
3564;DHT22;1796;52.388;13.096;2023-08-08T08:02:37;18.70;99.90
3564;DHT22;1796;52.388;13.096;2023-08-08T08:05:04;18.60;99.90
3564;DHT22;1796;52.388;13.096;2023-08-08T08:07:33;19.00;99.90
3564;DHT22;1796;52.388;13.096;2023-08-08T08:10:01;19.00;99.90
3564;DHT22;1796;52.388;13.096;2023-08-08T08:12:28;18.90;99.90
3564;DHT22;1796;52.388;13.096;2023-08-08T08:14:55;18.80;99.90
3564;DHT22;1796;52.388;13.096;2023-08-08T08:17:24;18.80;99.90
3564;DHT22;1796;52.388;13.096;2023-08-08T08:19:51;18.80;99.90
3564;DHT22;1796;52.388;13.096;2023-08-08T08:22:18;18.90;99.90
3564;DHT22;1796;52.388;13.096;2023-08-08T08:24:44;19.30;99.90
3564;DHT22;1796;52.388;13.096;2023-08-08T08:27:12;20.00;99.90
3564;DHT22;1796;52.388;13.096;2023-08-08T08:29:38;20.40;99.90
3564;DHT22;1796;52.388;13.096;2023-08-08T08:32:05;20.00;99.90
3564;DHT22;1796;52.388;13.096;2023-08-08T08:34:34;19.80;99.90
3564;DHT22;1796;52.388;13.096;2023-08-08T08:37:00;19.70;99.90
3564;DHT22;1796;52.388;13.096;2023-08-08T08:39:27;19.70;99.90
3564;DHT22;1796;52.388;13.096;2023-08-08T08:41:58;19.30;99.90
3564;DHT22;1796;52.388;13.096;2023-08-08T08:44:28;19.00;99.90
3564;DHT22;1796;52.388;13.096;2023-08-08T08:46:58;18.90;99.90
3564;DHT22;1796;52.388;13.096;2023-08-08T08:49:27;19.00;99.90
3564;DHT22;1796;52.388;13.096;2023-08-08T08:51:57;19.20;99.90
3564;DHT22;1796;52.388;13.096;2023-08-08T08:54:27;19.30;99.90
3564;DHT22;1796;52.388;13.096;2023-08-08T08:56:55;19.30;99.90
3564;DHT22;1796;52.388;13.096;2023-08-08T08:59:23;19.30;99.90
3564;DHT22;1796;52.388;13.096;2023-08-08T09:01:50;19.60;99.90
3564;DHT22;1796;52.388;13.096;2023-08-08T09:04:19;20.00;99.90
3564;DHT22;1796;52.388;13.096;2023-08-08T09:06:47;20.20;99.90
3564;DHT22;1796;52.388;13.096;2023-08-08T09:09:16;20.10;99.90
3564;DHT22;1796;52.388;13.096;2023-08-08T09:11:45;20.00;99.90
3564;DHT22;1796;52.388;13.096;2023-08-08T09:14:17;19.80;99.90
3564;DHT22;1796;52.388;13.096;2023-08-08T09:16:44;19.60;99.90
3564;DHT22;1796;52.388;13.096;2023-08-08T09:19:11;19.90;99.90
3564;DHT22;1796;52.388;13.096;2023-08-08T09:21:38;20.00;99.90
3564;DHT22;1796;52.388;13.096;2023-08-08T09:24:05;20.40;99.90
3564;DHT22;1796;52.388;13.096;2023-08-08T09:26:34;20.60;99.90
3564;DHT22;1796;52.388;13.096;2023-08-08T09:29:01;20.90;99.90
3564;DHT22;1796;52.388;13.096;2023-08-08T09:31:28;21.10;99.90
3564;DHT22;1796;52.388;13.096;2023-08-08T09:33:58;21.20;99.90
3564;DHT22;1796;52.388;13.096;2023-08-08T09:36:25;21.10;99.90
3564;DHT22;1796;52.388;13.096;2023-08-08T09:38:52;20.90;99.90
3564;DHT22;1796;52.388;13.096;2023-08-08T09:41:19;20.30;99.90
3564;DHT22;1796;52.388;13.096;2023-08-08T09:43:49;19.50;99.90
3564;DHT22;1796;52.388;13.096;2023-08-08T09:46:18;19.10;99.90
3564;DHT22;1796;52.388;13.096;2023-08-08T09:48:46;19.00;99.90
3564;DHT22;1796;52.388;13.096;2023-08-08T09:51:13;19.20;99.90
3564;DHT22;1796;52.388;13.096;2023-08-08T09:53:40;19.60;99.90
3564;DHT22;1796;52.388;13.096;2023-08-08T09:56:08;20.30;99.90
3564;DHT22;1796;52.388;13.096;2023-08-08T09:58:35;20.80;99.90
3564;DHT22;1796;52.388;13.096;2023-08-08T10:01:03;20.90;99.90
3564;DHT22;1796;52.388;13.096;2023-08-08T10:03:31;20.50;99.90
3564;DHT22;1796;52.388;13.096;2023-08-08T10:05:58;20.50;99.90
3564;DHT22;1796;52.388;13.096;2023-08-08T10:08:25;20.30;99.90
3564;DHT22;1796;52.388;13.096;2023-08-08T10:10:53;20.30;99.90
3564;DHT22;1796;52.388;13.096;2023-08-08T10:13:20;20.10;99.90
3564;DHT22;1796;52.388;13.096;2023-08-08T10:15:47;19.80;99.90
3564;DHT22;1796;52.388;13.096;2023-08-08T10:18:16;18.50;99.90
3564;DHT22;1796;52.388;13.096;2023-08-08T10:20:43;16.90;99.90
3564;DHT22;1796;52.388;13.096;2023-08-08T10:23:10;16.10;99.90
3564;DHT22;1796;52.388;13.096;2023-08-08T10:25:37;16.00;99.90
3564;DHT22;1796;52.388;13.096;2023-08-08T10:28:05;16.40;99.90
3564;DHT22;1796;52.388;13.096;2023-08-08T10:30:42;16.70;99.90
3564;DHT22;1796;52.388;13.096;2023-08-08T10:33:17;16.80;99.90
3564;DHT22;1796;52.388;13.096;2023-08-08T10:35:56;16.70;99.90
3564;DHT22;1796;52.388;13.096;2023-08-08T10:38:24;16.60;99.90
3564;DHT22;1796;52.388;13.096;2023-08-08T10:41:02;16.50;99.90
3564;DHT22;1796;52.388;13.096;2023-08-08T10:43:30;16.70;99.90
3564;DHT22;1796;52.388;13.096;2023-08-08T10:45:57;16.80;99.90
3564;DHT22;1796;52.388;13.096;2023-08-08T10:48:26;16.80;99.90
3564;DHT22;1796;52.388;13.096;2023-08-08T10:50:55;16.60;99.90
3564;DHT22;1796;52.388;13.096;2023-08-08T10:53:23;16.50;99.90
3564;DHT22;1796;52.388;13.096;2023-08-08T10:55:58;16.60;99.90
3564;DHT22;1796;52.388;13.096;2023-08-08T10:58:36;16.80;99.90
3564;DHT22;1796;52.388;13.096;2023-08-08T11:01:03;17.20;99.90
3564;DHT22;1796;52.388;13.096;2023-08-08T11:03:35;17.60;99.90
3564;DHT22;1796;52.388;13.096;2023-08-08T11:06:03;17.80;99.90
3564;DHT22;1796;52.388;13.096;2023-08-08T11:08:30;17.80;99.90
3564;DHT22;1796;52.388;13.096;2023-08-08T11:10:57;17.40;99.90
3564;DHT22;1796;52.388;13.096;2023-08-08T11:13:25;16.60;99.90
3564;DHT22;1796;52.388;13.096;2023-08-08T11:15:52;16.00;99.90
3564;DHT22;1796;52.388;13.096;2023-08-08T11:18:19;14.90;99.90
3564;DHT22;1796;52.388;13.096;2023-08-08T11:20:48;14.50;99.90
3564;DHT22;1796;52.388;13.096;2023-08-08T11:23:15;14.50;99.90
3564;DHT22;1796;52.388;13.096;2023-08-08T11:25:44;14.50;99.90
3564;DHT22;1796;52.388;13.096;2023-08-08T11:28:12;14.80;99.90
3564;DHT22;1796;52.388;13.096;2023-08-08T11:30:43;15.10;99.90
3564;DHT22;1796;52.388;13.096;2023-08-08T11:33:13;15.30;99.90
3564;DHT22;1796;52.388;13.096;2023-08-08T11:35:44;15.40;99.90
3564;DHT22;1796;52.388;13.096;2023-08-08T11:38:15;15.60;99.90
3564;DHT22;1796;52.388;13.096;2023-08-08T11:40:43;15.50;99.90
3564;DHT22;1796;52.388;13.096;2023-08-08T11:43:11;15.70;99.90
3564;DHT22;1796;52.388;13.096;2023-08-08T11:45:39;15.80;99.90
3564;DHT22;1796;52.388;13.096;2023-08-08T11:48:08;15.90;99.90
3564;DHT22;1796;52.388;13.096;2023-08-08T11:50:37;15.90;99.90
3564;DHT22;1796;52.388;13.096;2023-08-08T11:53:04;16.10;99.90
3564;DHT22;1796;52.388;13.096;2023-08-08T11:55:33;16.20;99.90
3564;DHT22;1796;52.388;13.096;2023-08-08T11:58:02;16.50;99.90
3564;DHT22;1796;52.388;13.096;2023-08-08T12:00:31;16.70;99.90
3564;DHT22;1796;52.388;13.096;2023-08-08T12:02:58;16.90;99.90
3564;DHT22;1796;52.388;13.096;2023-08-08T12:05:25;17.00;99.90
3564;DHT22;1796;52.388;13.096;2023-08-08T12:07:52;17.20;99.90
3564;DHT22;1796;52.388;13.096;2023-08-08T12:10:20;17.50;99.90
3564;DHT22;1796;52.388;13.096;2023-08-08T12:12:54;17.80;99.90
3564;DHT22;1796;52.388;13.096;2023-08-08T12:15:22;17.40;99.90
3564;DHT22;1796;52.388;13.096;2023-08-08T12:17:49;15.90;99.90
3564;DHT22;1796;52.388;13.096;2023-08-08T12:20:16;15.40;99.90
3564;DHT22;1796;52.388;13.096;2023-08-08T12:22:43;15.50;99.90
3564;DHT22;1796;52.388;13.096;2023-08-08T12:25:10;15.80;99.90
3564;DHT22;1796;52.388;13.096;2023-08-08T12:27:38;16.00;99.90
3564;DHT22;1796;52.388;13.096;2023-08-08T12:30:08;16.00;99.90
3564;DHT22;1796;52.388;13.096;2023-08-08T12:32:35;15.90;99.90
3564;DHT22;1796;52.388;13.096;2023-08-08T12:35:03;16.00;99.90
3564;DHT22;1796;52.388;13.096;2023-08-08T12:37:30;16.00;99.90
3564;DHT22;1796;52.388;13.096;2023-08-08T12:39:56;16.20;99.90
3564;DHT22;1796;52.388;13.096;2023-08-08T12:42:23;16.60;99.90
3564;DHT22;1796;52.388;13.096;2023-08-08T12:44:50;16.90;99.90
3564;DHT22;1796;52.388;13.096;2023-08-08T12:47:19;17.20;99.90
3564;DHT22;1796;52.388;13.096;2023-08-08T12:49:47;17.60;99.90
3564;DHT22;1796;52.388;13.096;2023-08-08T12:52:14;17.90;99.90
3564;DHT22;1796;52.388;13.096;2023-08-08T12:54:41;18.10;99.90
3564;DHT22;1796;52.388;13.096;2023-08-08T12:57:07;18.40;99.90
3564;DHT22;1796;52.388;13.096;2023-08-08T12:59:34;18.40;99.90
3564;DHT22;1796;52.388;13.096;2023-08-08T13:02:02;18.40;99.90
3564;DHT22;1796;52.388;13.096;2023-08-08T13:04:30;18.40;99.90
3564;DHT22;1796;52.388;13.096;2023-08-08T13:06:57;18.50;99.90
3564;DHT22;1796;52.388;13.096;2023-08-08T13:09:25;18.60;99.90
3564;DHT22;1796;52.388;13.096;2023-08-08T13:11:52;18.90;99.90
3564;DHT22;1796;52.388;13.096;2023-08-08T13:14:19;18.90;99.90
3564;DHT22;1796;52.388;13.096;2023-08-08T13:16:46;19.10;99.90
3564;DHT22;1796;52.388;13.096;2023-08-08T13:19:13;19.40;99.90
3564;DHT22;1796;52.388;13.096;2023-08-08T13:21:43;19.80;99.90
3564;DHT22;1796;52.388;13.096;2023-08-08T13:24:10;19.80;99.90
3564;DHT22;1796;52.388;13.096;2023-08-08T13:26:38;19.00;99.90
3564;DHT22;1796;52.388;13.096;2023-08-08T13:29:05;18.30;99.90
3564;DHT22;1796;52.388;13.096;2023-08-08T13:31:32;18.00;99.90
3564;DHT22;1796;52.388;13.096;2023-08-08T13:33:59;17.60;99.90
3564;DHT22;1796;52.388;13.096;2023-08-08T13:36:26;17.20;99.90
3564;DHT22;1796;52.388;13.096;2023-08-08T13:38:54;16.60;99.90
3564;DHT22;1796;52.388;13.096;2023-08-08T13:41:21;16.20;99.90
3564;DHT22;1796;52.388;13.096;2023-08-08T13:43:48;16.00;99.90
3564;DHT22;1796;52.388;13.096;2023-08-08T13:46:15;16.00;99.90
3564;DHT22;1796;52.388;13.096;2023-08-08T13:48:42;16.20;99.90
3564;DHT22;1796;52.388;13.096;2023-08-08T13:51:09;16.40;99.90
3564;DHT22;1796;52.388;13.096;2023-08-08T13:53:36;16.90;99.90
3564;DHT22;1796;52.388;13.096;2023-08-08T13:56:04;17.50;99.90
3564;DHT22;1796;52.388;13.096;2023-08-08T13:58:31;17.80;99.90
3564;DHT22;1796;52.388;13.096;2023-08-08T14:00:58;18.00;99.90
3564;DHT22;1796;52.388;13.096;2023-08-08T14:03:25;18.10;99.90
3564;DHT22;1796;52.388;13.096;2023-08-08T14:05:52;18.30;99.90
3564;DHT22;1796;52.388;13.096;2023-08-08T14:08:19;18.50;99.90
3564;DHT22;1796;52.388;13.096;2023-08-08T14:10:46;18.70;99.90
3564;DHT22;1796;52.388;13.096;2023-08-08T14:13:15;18.60;99.90
3564;DHT22;1796;52.388;13.096;2023-08-08T14:15:42;18.60;99.90
3564;DHT22;1796;52.388;13.096;2023-08-08T14:18:08;18.60;99.90
3564;DHT22;1796;52.388;13.096;2023-08-08T14:20:36;18.70;99.90
3564;DHT22;1796;52.388;13.096;2023-08-08T14:23:03;18.80;99.90
3564;DHT22;1796;52.388;13.096;2023-08-08T14:25:31;18.90;99.90
3564;DHT22;1796;52.388;13.096;2023-08-08T14:27:58;18.90;99.90
3564;DHT22;1796;52.388;13.096;2023-08-08T14:30:26;19.00;99.90
3564;DHT22;1796;52.388;13.096;2023-08-08T14:32:54;19.00;99.90
3564;DHT22;1796;52.388;13.096;2023-08-08T14:35:22;19.10;99.90
3564;DHT22;1796;52.388;13.096;2023-08-08T14:37:49;19.30;99.90
3564;DHT22;1796;52.388;13.096;2023-08-08T14:40:16;19.40;99.90
3564;DHT22;1796;52.388;13.096;2023-08-08T14:42:43;19.50;99.90
3564;DHT22;1796;52.388;13.096;2023-08-08T14:45:10;19.70;99.90
3564;DHT22;1796;52.388;13.096;2023-08-08T14:47:38;19.80;99.90
3564;DHT22;1796;52.388;13.096;2023-08-08T14:50:06;19.90;99.90
3564;DHT22;1796;52.388;13.096;2023-08-08T14:52:33;19.90;99.90
3564;DHT22;1796;52.388;13.096;2023-08-08T14:55:01;20.00;99.90
3564;DHT22;1796;52.388;13.096;2023-08-08T14:57:27;20.00;99.90
3564;DHT22;1796;52.388;13.096;2023-08-08T14:59:54;20.10;99.90
3564;DHT22;1796;52.388;13.096;2023-08-08T15:02:22;20.30;99.90
3564;DHT22;1796;52.388;13.096;2023-08-08T15:04:50;20.40;99.90
3564;DHT22;1796;52.388;13.096;2023-08-08T15:07:17;20.20;99.90
3564;DHT22;1796;52.388;13.096;2023-08-08T15:09:44;20.20;99.90
3564;DHT22;1796;52.388;13.096;2023-08-08T15:12:14;20.10;99.90
3564;DHT22;1796;52.388;13.096;2023-08-08T15:14:41;19.80;99.90
3564;DHT22;1796;52.388;13.096;2023-08-08T15:17:08;19.50;99.90
3564;DHT22;1796;52.388;13.096;2023-08-08T15:19:35;19.60;99.90
3564;DHT22;1796;52.388;13.096;2023-08-08T15:22:05;19.90;99.90
3564;DHT22;1796;52.388;13.096;2023-08-08T15:24:32;20.00;99.90
3564;DHT22;1796;52.388;13.096;2023-08-08T15:27:01;19.90;99.90
3564;DHT22;1796;52.388;13.096;2023-08-08T15:29:28;19.70;99.90
3564;DHT22;1796;52.388;13.096;2023-08-08T15:31:55;19.60;99.90
3564;DHT22;1796;52.388;13.096;2023-08-08T15:34:22;19.60;99.90
3564;DHT22;1796;52.388;13.096;2023-08-08T15:36:49;19.50;99.90
3564;DHT22;1796;52.388;13.096;2023-08-08T15:39:18;19.10;99.90
3564;DHT22;1796;52.388;13.096;2023-08-08T15:41:46;18.70;99.90
3564;DHT22;1796;52.388;13.096;2023-08-08T15:44:13;18.20;99.90
3564;DHT22;1796;52.388;13.096;2023-08-08T15:46:40;17.90;99.90